createdAt,value
2023-04-03T00:00:54.770Z,100940.55
2023-04-03T00:05:58.677Z,100946.79
2023-04-03T00:11:02.412Z,100944.89
2023-04-03T00:16:23.418Z,100947.16
2023-04-03T00:21:59.654Z,100953.92
2023-04-03T00:27:23.882Z,100953.14
2023-04-03T00:32:27.329Z,100958.41
2023-04-03T00:37:31.885Z,100957.61
2023-04-03T00:42:35.345Z,100958.15
2023-04-03T00:47:41.809Z,100960.40
2023-04-03T00:52:47.764Z,100963.20
2023-04-03T00:57:52.244Z,100963.57
2023-04-03T01:03:19.170Z,100973.08
2023-04-03T01:08:23.124Z,100983.13
2023-04-03T01:13:32.485Z,100989.34
2023-04-03T01:18:43.308Z,100996.39
2023-04-03T01:24:20.020Z,100999.34
2023-04-03T01:29:23.768Z,101007.07
2023-04-03T01:34:28.933Z,101012.41
2023-04-03T01:39:32.889Z,101014.36
2023-04-03T01:44:57.257Z,101022.28
2023-04-03T01:50:00.967Z,101022.65
2023-04-03T01:55:07.924Z,101026.45
2023-04-03T02:00:11.913Z,101028.90
2023-04-03T02:05:18.475Z,101035.94
2023-04-03T02:10:21.997Z,101038.91
2023-04-03T02:15:56.054Z,101041.80
2023-04-03T02:21:03.009Z,101044.94
2023-04-03T02:26:13.734Z,101043.06
2023-04-03T02:31:25.292Z,101048.00
2023-04-03T02:36:31.737Z,101053.66
2023-04-03T02:41:37.136Z,101058.04
2023-04-03T02:46:44.756Z,101057.54
2023-04-03T02:51:48.779Z,101062.52
2023-04-03T02:56:52.309Z,101066.40
2023-04-03T03:02:06.953Z,101066.63
2023-04-03T03:07:23.473Z,101067.80
2023-04-03T03:12:27.240Z,101061.68
2023-04-03T03:17:31.266Z,101068.74
2023-04-03T03:22:37.051Z,101067.89
2023-04-03T03:27:41.407Z,101071.82
2023-04-03T03:32:44.850Z,101073.50
2023-04-03T03:38:01.840Z,101078.29
2023-04-03T03:43:17.495Z,101072.11
2023-04-03T03:48:31.900Z,101071.45
2023-04-03T03:53:35.648Z,101077.59
2023-04-03T03:58:45.084Z,101079.63
2023-04-03T04:03:50.437Z,101083.89
2023-04-03T04:09:34.776Z,101090.16
2023-04-03T04:14:38.341Z,101093.54
2023-04-03T04:19:42.506Z,101100.13
2023-04-03T04:24:46.163Z,101105.98
2023-04-03T04:29:49.540Z,101108.77
2023-04-03T04:34:53.622Z,101116.74
2023-04-03T04:39:57.416Z,101122.36
2023-04-03T04:45:01.497Z,101126.42
2023-04-03T04:50:06.717Z,101128.27
2023-04-03T04:55:10.476Z,101131.48
2023-04-03T05:00:21.509Z,101134.91
2023-04-03T05:05:25.514Z,101139.59
2023-04-03T05:10:30.343Z,101145.03
2023-04-03T05:15:33.954Z,101147.27
2023-04-03T05:20:38.308Z,101152.88
2023-04-03T05:25:42.305Z,101155.80
2023-04-03T05:30:46.189Z,101162.77
2023-04-03T05:35:49.769Z,101165.98
2023-04-03T05:40:55.723Z,101168.90
2023-04-03T05:45:59.714Z,101172.63
2023-04-03T05:51:28.793Z,101175.48
2023-04-03T05:56:36.527Z,101176.20
2023-04-03T06:01:50.567Z,101172.93
2023-04-03T06:06:59.191Z,101174.70
2023-04-03T06:12:06.197Z,101177.71
2023-04-03T06:17:10.359Z,101172.51
2023-04-03T06:22:15.693Z,101175.55
2023-04-03T06:27:19.161Z,101184.58
2023-04-03T06:32:44.102Z,101190.27
2023-04-03T06:38:10.622Z,101197.86
2023-04-03T06:43:14.112Z,101194.23
2023-04-03T06:48:41.063Z,101195.43
2023-04-03T06:53:44.625Z,101199.07
2023-04-03T06:58:48.275Z,101206.27
2023-04-03T07:03:51.910Z,101214.59
2023-04-03T07:09:22.643Z,101215.83
2023-04-03T07:14:29.729Z,101225.53
2023-04-03T07:19:36.553Z,101229.70
2023-04-03T07:24:51.741Z,101230.98
2023-04-03T07:30:20.891Z,101230.86
2023-04-03T07:36:00.184Z,101242.63
2023-04-03T07:41:06.918Z,101238.52
2023-04-03T07:46:35.278Z,101247.32
2023-04-03T07:52:01.786Z,101246.97
2023-04-03T07:57:08.947Z,101245.72
2023-04-03T08:02:17.964Z,101241.42
2023-04-03T08:07:32.132Z,101241.47
2023-04-03T08:13:11.665Z,101243.83
2023-04-03T08:18:36.842Z,101244.40
2023-04-03T08:24:04.496Z,101248.71
2023-04-03T08:29:20.837Z,101250.25
2023-04-03T08:34:48.477Z,101258.23
2023-04-03T08:39:54.893Z,101254.13
2023-04-03T08:45:32.632Z,101260.98
2023-04-03T08:51:10.914Z,101259.91
2023-04-03T08:56:21.786Z,101256.48
2023-04-03T09:02:15.575Z,101256.59
2023-04-03T09:07:29.858Z,101259.00
2023-04-03T09:12:43.343Z,101266.65
2023-04-03T09:18:16.981Z,101258.14
2023-04-03T09:23:27.817Z,101262.05
2023-04-03T09:28:38.799Z,101263.26
2023-04-03T09:34:03.454Z,101258.73
2023-04-03T09:39:15.843Z,101255.48
2023-04-03T09:44:30.054Z,101258.88
2023-04-03T09:49:33.745Z,101257.08
2023-04-03T09:54:40.786Z,101258.83
2023-04-03T10:00:17.526Z,101263.56
2023-04-03T10:06:14.575Z,101266.94
2023-04-03T10:11:58.122Z,101266.88
2023-04-03T10:17:35.764Z,101276.14
2023-04-03T10:23:04.277Z,101272.77
2023-04-03T10:28:41.983Z,101267.98
2023-04-03T10:34:07.720Z,101273.39
2023-04-03T10:39:45.403Z,101271.19
2023-04-03T10:45:21.121Z,101265.00
2023-04-03T10:50:54.855Z,101253.81
2023-04-03T10:56:14.304Z,101253.40
2023-04-03T11:01:22.843Z,101251.12
2023-04-03T11:06:37.753Z,101256.23
2023-04-03T11:12:56.951Z,101258.48
2023-04-03T11:18:48.802Z,101261.98
2023-04-03T11:24:27.817Z,101255.55
2023-04-03T11:29:37.771Z,101243.06
2023-04-03T11:34:44.504Z,101239.92
2023-04-03T11:40:21.302Z,101239.18
2023-04-03T11:46:11.315Z,101229.31
2023-04-03T11:51:17.363Z,101236.70
2023-04-03T11:57:17.553Z,101235.45
2023-04-03T12:03:12.351Z,101231.13
2023-04-03T12:08:30.512Z,101224.70
2023-04-03T12:14:51.661Z,101229.35
2023-04-03T12:21:23.962Z,101237.26
2023-04-03T12:27:23.410Z,101228.95
2023-04-03T12:33:13.726Z,101227.79
2023-04-03T12:39:05.874Z,101224.20
2023-04-03T12:45:02.089Z,101219.04
2023-04-03T12:50:32.105Z,101225.11
2023-04-03T12:56:01.380Z,101219.02
2023-04-03T13:01:19.367Z,101214.83
2023-04-03T13:06:44.352Z,101226.63
2023-04-03T13:11:53.215Z,101230.70
2023-04-03T13:16:57.752Z,101221.66
2023-04-03T13:22:24.970Z,101222.11
2023-04-03T13:27:31.955Z,101222.25
2023-04-03T13:32:35.815Z,101224.14
2023-04-03T13:38:06.662Z,101225.30
2023-04-03T13:43:28.836Z,101220.44
2023-04-03T13:48:45.336Z,101215.65
2023-04-03T13:53:53.718Z,101217.03
2023-04-03T13:58:58.996Z,101217.55
2023-04-03T14:04:30.100Z,101221.72
2023-04-03T14:09:39.060Z,101215.89
2023-04-03T14:15:29.329Z,101212.97
2023-04-03T14:21:05.443Z,101207.21
2023-04-03T14:26:50.810Z,101212.70
2023-04-03T14:32:07.851Z,101216.27
2023-04-03T14:38:08.776Z,101212.58
2023-04-03T14:43:48.627Z,101209.78
2023-04-03T14:50:04.913Z,101211.13
2023-04-03T14:55:15.681Z,101208.83
2023-04-03T15:00:28.626Z,101215.05
2023-04-03T15:05:55.595Z,101220.04
2023-04-03T15:10:59.391Z,101225.85
2023-04-03T15:16:26.905Z,101222.72
2023-04-03T15:21:41.783Z,101215.10
2023-04-03T15:26:58.280Z,101215.96
2023-04-03T15:32:23.142Z,101219.56
2023-04-03T15:37:49.695Z,101221.06
2023-04-03T15:43:14.278Z,101221.70
2023-04-03T15:48:31.189Z,101223.04
2023-04-03T15:54:45.241Z,101219.20
2023-04-03T15:59:57.681Z,101224.71
2023-04-03T16:05:21.656Z,101224.13
2023-04-03T16:10:31.209Z,101223.27
2023-04-03T16:15:49.880Z,101220.73
2023-04-03T16:21:55.957Z,101217.38
2023-04-03T16:27:30.010Z,101216.67
2023-04-03T16:33:45.065Z,101220.63
2023-04-03T16:39:48.057Z,101216.75
2023-04-03T16:45:04.959Z,101223.42
2023-04-03T16:50:09.868Z,101228.08
2023-04-03T16:55:25.824Z,101233.02
2023-04-03T17:00:33.166Z,101226.92
2023-04-03T17:06:18.556Z,101237.92
2023-04-03T17:11:39.336Z,101244.59
2023-04-03T17:16:46.287Z,101250.73
2023-04-03T17:22:02.828Z,101252.25
2023-04-03T17:27:08.741Z,101253.58
2023-04-03T17:32:12.505Z,101252.15
2023-04-03T17:37:38.565Z,101257.14
2023-04-03T17:43:08.768Z,101261.80
2023-04-03T17:48:12.280Z,101264.86
2023-04-03T17:53:18.368Z,101266.89
2023-04-03T17:58:31.893Z,101269.59
2023-04-03T18:03:46.146Z,101269.89
2023-04-03T18:08:53.153Z,101271.77
2023-04-03T18:14:48.191Z,101276.57
2023-04-03T18:19:55.352Z,101282.14
2023-04-03T18:25:01.944Z,101285.40
2023-04-03T18:30:29.829Z,101284.13
2023-04-03T18:35:33.650Z,101283.55
2023-04-03T18:40:47.484Z,101290.58
2023-04-03T18:45:51.654Z,101295.86
2023-04-03T18:51:07.151Z,101298.05
2023-04-03T18:56:53.552Z,101291.09
2023-04-03T19:02:33.057Z,101292.88
2023-04-03T19:07:47.314Z,101292.44
2023-04-03T19:13:34.246Z,101291.36
2023-04-03T19:19:01.155Z,101294.38
2023-04-03T19:24:48.574Z,101295.34
2023-04-03T19:30:56.274Z,101294.22
2023-04-03T19:36:20.023Z,101299.29
2023-04-03T19:42:15.577Z,101301.11
2023-04-03T19:47:41.241Z,101305.89
2023-04-03T19:53:06.162Z,101309.10
2023-04-03T19:59:20.665Z,101309.20
2023-04-03T20:04:38.420Z,101315.66
2023-04-03T20:10:06.053Z,101316.86
2023-04-03T20:16:12.896Z,101313.21
2023-04-03T20:21:38.888Z,101305.71
2023-04-03T20:27:05.753Z,101309.29
2023-04-03T20:32:33.446Z,101310.22
2023-04-03T20:38:26.329Z,101307.53
2023-04-03T20:43:42.996Z,101313.48
2023-04-03T20:49:31.121Z,101312.48
2023-04-03T20:55:12.090Z,101315.36
2023-04-03T21:00:47.685Z,101313.33
2023-04-03T21:05:59.817Z,101317.83
2023-04-03T21:11:44.018Z,101319.27
2023-04-03T21:16:47.276Z,101312.55
2023-04-03T21:21:52.130Z,101313.45
2023-04-03T21:27:07.360Z,101312.33
2023-04-03T21:32:33.445Z,101310.64
2023-04-03T21:37:40.151Z,101315.89
2023-04-03T21:42:43.753Z,101318.55
2023-04-03T21:48:03.607Z,101316.02
2023-04-03T21:53:58.160Z,101319.19
2023-04-03T21:59:22.188Z,101318.27
2023-04-03T22:05:13.903Z,101317.85
2023-04-03T22:10:28.647Z,101318.21
2023-04-03T22:15:43.610Z,101310.73
2023-04-03T22:20:47.348Z,101315.52
2023-04-03T22:26:28.583Z,101313.69
2023-04-03T22:31:38.287Z,101315.92
2023-04-03T22:36:52.337Z,101318.81
2023-04-03T22:41:56.181Z,101311.67
2023-04-03T22:47:02.456Z,101307.15
2023-04-03T22:52:05.903Z,101303.39
2023-04-03T22:57:11.678Z,101305.83
2023-04-03T23:02:15.362Z,101303.73
2023-04-03T23:07:22.805Z,101297.11
2023-04-03T23:13:10.728Z,101295.42
2023-04-03T23:18:41.802Z,101295.41
2023-04-03T23:23:45.142Z,101295.65
2023-04-03T23:29:49.353Z,101291.56
2023-04-03T23:34:57.926Z,101289.34
2023-04-03T23:40:04.669Z,101286.98
2023-04-03T23:45:09.034Z,101280.70
2023-04-03T23:50:25.393Z,101277.91
2023-04-03T23:55:28.984Z,101270.37
